createdAt,value
2019-03-13T00:00:54.182Z,8.50
2019-03-13T00:03:20.804Z,8.30
2019-03-13T00:05:50.006Z,8.10
2019-03-13T00:08:19.017Z,8.00
2019-03-13T00:10:47.489Z,7.90
2019-03-13T00:13:16.017Z,7.90
2019-03-13T00:15:42.482Z,7.80
2019-03-13T00:18:08.677Z,7.90
2019-03-13T00:20:35.927Z,7.80
2019-03-13T00:23:02.595Z,7.80
2019-03-13T00:25:28.665Z,7.80
2019-03-13T00:28:02.294Z,7.70
2019-03-13T00:30:28.402Z,7.60
2019-03-13T00:32:56.557Z,7.60
2019-03-13T00:35:24.996Z,7.60
2019-03-13T00:37:51.187Z,7.60
2019-03-13T00:40:18.814Z,7.60
2019-03-13T00:42:46.918Z,7.50
2019-03-13T00:45:14.571Z,7.50
2019-03-13T00:47:41.510Z,7.40
2019-03-13T00:50:15.518Z,7.40
2019-03-13T00:52:41.629Z,7.40
2019-03-13T00:55:11.941Z,7.40
2019-03-13T00:57:38.884Z,7.40
2019-03-13T01:00:09.695Z,7.40
2019-03-13T01:02:37.841Z,7.40
2019-03-13T01:05:07.379Z,7.30
2019-03-13T01:07:36.776Z,7.40
2019-03-13T01:10:06.178Z,7.40
2019-03-13T01:12:32.437Z,7.30
2019-03-13T01:15:04.525Z,7.30
2019-03-13T01:17:30.635Z,7.30
2019-03-13T01:19:56.691Z,7.30
2019-03-13T01:22:24.137Z,7.30
2019-03-13T01:24:50.270Z,7.30
2019-03-13T01:27:16.586Z,7.30
2019-03-13T01:29:42.863Z,7.30
2019-03-13T01:32:10.940Z,7.30
2019-03-13T01:34:39.047Z,7.30
2019-03-13T01:37:05.234Z,7.30
2019-03-13T01:39:32.706Z,7.20
2019-03-13T01:42:01.919Z,7.20
2019-03-13T01:44:33.050Z,7.20
2019-03-13T01:46:59.516Z,7.10
2019-03-13T01:49:27.024Z,7.10
2019-03-13T01:51:57.207Z,7.10
2019-03-13T01:54:28.155Z,7.10
2019-03-13T01:56:55.866Z,7.00
2019-03-13T01:59:23.088Z,7.00
2019-03-13T02:01:49.636Z,6.90
2019-03-13T02:04:17.080Z,6.90
2019-03-13T02:06:44.861Z,6.90
2019-03-13T02:09:11.182Z,6.80
2019-03-13T02:11:37.482Z,6.80
2019-03-13T02:14:04.634Z,6.80
2019-03-13T02:16:31.200Z,6.70
2019-03-13T02:18:58.984Z,6.70
2019-03-13T02:21:25.016Z,6.70
2019-03-13T02:23:53.793Z,6.70
2019-03-13T02:26:22.117Z,6.70
2019-03-13T02:29:18.867Z,6.60
2019-03-13T02:31:45.942Z,6.70
2019-03-13T02:34:13.478Z,6.70
2019-03-13T02:36:39.535Z,6.70
2019-03-13T02:39:10.410Z,6.60
2019-03-13T02:41:36.491Z,6.60
2019-03-13T02:44:03.506Z,6.60
2019-03-13T02:46:29.750Z,6.60
2019-03-13T02:48:57.855Z,6.60
2019-03-13T02:51:23.998Z,6.60
2019-03-13T02:53:51.391Z,6.60
2019-03-13T02:56:17.680Z,6.60
2019-03-13T02:58:48.163Z,6.60
2019-03-13T03:01:21.696Z,6.60
2019-03-13T03:03:53.733Z,6.70
2019-03-13T03:06:20.924Z,6.70
2019-03-13T03:08:47.310Z,6.60
2019-03-13T03:11:13.574Z,6.60
2019-03-13T03:13:40.825Z,6.60
2019-03-13T03:16:07.047Z,6.60
2019-03-13T03:18:33.264Z,6.60
2019-03-13T03:21:00.957Z,6.50
2019-03-13T03:23:27.078Z,6.40
2019-03-13T03:25:53.287Z,6.40
2019-03-13T03:28:19.907Z,6.40
2019-03-13T03:30:46.266Z,6.30
2019-03-13T03:33:12.455Z,6.40
2019-03-13T03:35:38.645Z,6.30
2019-03-13T03:38:06.518Z,6.30
2019-03-13T03:40:38.780Z,6.30
2019-03-13T03:43:06.380Z,6.30
2019-03-13T03:45:32.915Z,6.40
2019-03-13T03:48:04.031Z,6.40
2019-03-13T03:50:30.228Z,6.40
2019-03-13T03:52:59.262Z,6.30
2019-03-13T03:55:28.823Z,6.30
2019-03-13T03:57:55.260Z,6.20
2019-03-13T04:00:21.570Z,6.20
2019-03-13T04:02:47.719Z,6.20
2019-03-13T04:05:17.174Z,6.20
2019-03-13T04:07:45.387Z,6.10
2019-03-13T04:10:18.980Z,6.10
2019-03-13T04:12:45.277Z,6.00
2019-03-13T04:15:13.307Z,6.10
2019-03-13T04:17:39.413Z,6.00
2019-03-13T04:20:10.403Z,6.00
2019-03-13T04:22:37.021Z,6.00
2019-03-13T04:25:11.915Z,5.90
2019-03-13T04:27:39.181Z,5.90
2019-03-13T04:30:09.433Z,5.90
2019-03-13T04:32:38.962Z,5.90
2019-03-13T04:35:05.753Z,5.90
2019-03-13T04:37:32.174Z,6.00
2019-03-13T04:39:58.396Z,5.90
2019-03-13T04:42:25.585Z,5.90
2019-03-13T04:44:51.823Z,5.90
2019-03-13T04:47:18.118Z,5.90
2019-03-13T04:49:44.283Z,5.90
2019-03-13T04:52:10.482Z,5.80
2019-03-13T04:54:36.651Z,5.90
2019-03-13T04:57:11.962Z,5.90
2019-03-13T04:59:38.269Z,5.90
2019-03-13T05:02:04.517Z,5.90
2019-03-13T05:04:31.702Z,5.90
2019-03-13T05:06:57.930Z,5.90
2019-03-13T05:09:27.855Z,5.90
2019-03-13T05:11:54.186Z,5.90
2019-03-13T05:14:20.403Z,6.00
2019-03-13T05:16:46.743Z,6.00
2019-03-13T05:19:14.039Z,6.00
2019-03-13T05:21:42.286Z,6.00
2019-03-13T05:24:08.358Z,6.00
2019-03-13T05:26:35.715Z,6.10
2019-03-13T05:29:01.856Z,6.00
2019-03-13T05:31:29.232Z,6.00
2019-03-13T05:33:55.671Z,6.00
2019-03-13T05:36:26.719Z,6.00
2019-03-13T05:38:55.478Z,6.10
2019-03-13T05:41:21.844Z,6.10
2019-03-13T05:43:51.246Z,6.10
2019-03-13T05:46:19.237Z,6.10
2019-03-13T05:48:46.749Z,6.10
2019-03-13T05:51:12.974Z,6.10
2019-03-13T05:53:39.504Z,6.10
2019-03-13T05:56:07.086Z,6.10
2019-03-13T05:58:33.513Z,6.10
2019-03-13T06:01:00.865Z,6.10
2019-03-13T06:03:29.235Z,6.10
2019-03-13T06:05:55.658Z,6.20
2019-03-13T06:08:22.773Z,6.20
2019-03-13T06:10:50.475Z,6.20
2019-03-13T06:13:16.538Z,6.20
2019-03-13T06:15:43.571Z,6.30
2019-03-13T06:18:10.226Z,6.30
2019-03-13T06:20:37.021Z,6.40
2019-03-13T06:23:03.211Z,6.40
2019-03-13T06:25:29.375Z,6.40
2019-03-13T06:27:59.035Z,6.40
2019-03-13T06:30:25.338Z,6.50
2019-03-13T06:32:52.156Z,6.50
2019-03-13T06:35:23.536Z,6.50
2019-03-13T06:37:49.133Z,6.60
2019-03-13T06:40:19.152Z,6.60
2019-03-13T06:42:49.769Z,6.70
2019-03-13T06:45:16.717Z,6.70
2019-03-13T06:47:43.049Z,6.70
2019-03-13T06:50:12.256Z,6.60
2019-03-13T06:52:40.332Z,6.70
2019-03-13T06:55:07.061Z,6.60
2019-03-13T06:57:36.144Z,6.60
2019-03-13T07:00:26.051Z,6.60
2019-03-13T07:02:54.522Z,6.60
2019-03-13T07:05:25.379Z,6.50
2019-03-13T07:08:02.440Z,6.60
2019-03-13T07:10:36.351Z,6.70
2019-03-13T07:13:22.352Z,6.70
2019-03-13T07:15:51.124Z,6.70
2019-03-13T07:18:37.098Z,6.70
2019-03-13T07:21:11.338Z,6.70
2019-03-13T07:23:54.819Z,6.70
2019-03-13T07:26:27.347Z,6.70
2019-03-13T07:29:16.252Z,6.80
2019-03-13T07:31:47.099Z,6.80
2019-03-13T07:34:17.809Z,6.80
2019-03-13T07:36:58.907Z,6.70
2019-03-13T07:39:34.495Z,6.60
2019-03-13T07:42:17.406Z,6.70
2019-03-13T07:44:48.095Z,6.60
2019-03-13T07:47:31.456Z,6.70
2019-03-13T07:50:06.326Z,6.80
2019-03-13T07:52:51.103Z,6.80
2019-03-13T07:55:33.109Z,6.80
2019-03-13T07:58:01.148Z,6.80
2019-03-13T08:00:38.315Z,6.80
2019-03-13T08:03:24.621Z,6.80
2019-03-13T08:05:52.712Z,6.90
2019-03-13T08:08:21.151Z,6.80
2019-03-13T08:11:05.666Z,6.90
2019-03-13T08:13:51.396Z,7.00
2019-03-13T08:16:22.370Z,7.10
2019-03-13T08:19:05.387Z,7.10
2019-03-13T08:21:45.093Z,7.10
2019-03-13T08:24:16.170Z,7.10
2019-03-13T08:26:56.083Z,7.00
2019-03-13T08:29:41.790Z,7.10
2019-03-13T08:32:20.880Z,7.20
2019-03-13T08:34:56.398Z,7.20
2019-03-13T08:37:42.047Z,7.10
2019-03-13T08:40:18.811Z,7.20
2019-03-13T08:42:45.716Z,7.30
2019-03-13T08:45:17.350Z,7.40
2019-03-13T08:48:01.946Z,7.40
2019-03-13T08:50:34.695Z,7.40
2019-03-13T08:53:22.472Z,7.40
2019-03-13T08:56:02.157Z,7.40
2019-03-13T08:58:44.124Z,7.50
2019-03-13T09:01:26.914Z,7.60
2019-03-13T09:04:13.217Z,7.50
2019-03-13T09:06:42.432Z,7.50
2019-03-13T09:09:16.155Z,7.50
2019-03-13T09:11:44.226Z,7.50
2019-03-13T09:14:20.974Z,7.50
2019-03-13T09:17:05.328Z,7.50
2019-03-13T09:19:35.528Z,7.50
2019-03-13T09:22:20.304Z,7.60
2019-03-13T09:25:11.958Z,7.70
2019-03-13T09:27:35.792Z,7.60
2019-03-13T09:30:18.427Z,7.70
2019-03-13T09:32:46.590Z,7.70
2019-03-13T09:35:31.251Z,7.70
2019-03-13T09:37:59.316Z,7.80
2019-03-13T09:40:37.095Z,7.80
2019-03-13T09:43:21.595Z,7.70
2019-03-13T09:45:55.483Z,7.60
2019-03-13T09:48:23.448Z,7.70
2019-03-13T09:50:57.699Z,7.80
2019-03-13T09:53:30.757Z,7.80
2019-03-13T09:56:11.971Z,7.80
2019-03-13T09:58:45.950Z,7.80
2019-03-13T10:01:18.509Z,7.90
2019-03-13T10:03:55.360Z,7.80
2019-03-13T10:06:32.191Z,7.70
2019-03-13T10:09:18.075Z,7.70
2019-03-13T10:11:48.908Z,7.60
2019-03-13T10:14:27.083Z,7.50
2019-03-13T10:17:10.651Z,7.50
2019-03-13T10:19:43.312Z,7.60
2019-03-13T10:22:11.695Z,7.60
2019-03-13T10:24:50.309Z,7.70
2019-03-13T10:27:21.436Z,7.70
2019-03-13T10:29:49.559Z,7.80
2019-03-13T10:32:34.045Z,7.90
2019-03-13T10:35:04.747Z,8.00
2019-03-13T10:37:34.734Z,8.00
2019-03-13T10:40:03.206Z,8.10
2019-03-13T10:42:41.469Z,8.10
2019-03-13T10:45:21.625Z,8.10
2019-03-13T10:47:55.570Z,8.20
2019-03-13T10:50:40.454Z,8.30
2019-03-13T10:53:26.090Z,8.40
2019-03-13T10:56:12.460Z,8.40
2019-03-13T10:58:58.641Z,8.50
2019-03-13T11:01:29.882Z,8.50
2019-03-13T11:04:17.793Z,8.60
2019-03-13T11:06:55.500Z,8.60
2019-03-13T11:09:23.853Z,8.70
2019-03-13T11:11:53.870Z,8.60
2019-03-13T11:14:32.780Z,8.60
2019-03-13T11:17:01.003Z,8.50
2019-03-13T11:19:37.860Z,8.40
2019-03-13T11:22:08.724Z,8.50
2019-03-13T11:24:36.896Z,8.50
2019-03-13T11:27:05.076Z,8.60
2019-03-13T11:29:43.084Z,8.60
2019-03-13T11:32:14.269Z,8.60
2019-03-13T11:34:50.248Z,8.40
2019-03-13T11:37:18.427Z,8.40
2019-03-13T11:39:49.714Z,8.60
2019-03-13T11:42:17.949Z,8.80
2019-03-13T11:44:55.470Z,8.90
2019-03-13T11:47:41.713Z,9.00
2019-03-13T11:50:00.368Z,9.00
2019-03-13T11:52:37.020Z,8.80
2019-03-13T11:55:25.961Z,8.90
2019-03-13T11:58:07.622Z,8.80
2019-03-13T12:00:47.832Z,8.80
2019-03-13T12:03:33.777Z,8.80
2019-03-13T12:06:07.582Z,8.80
2019-03-13T12:08:37.664Z,8.70
2019-03-13T12:11:17.654Z,8.80
2019-03-13T12:13:53.625Z,8.80
2019-03-13T12:16:21.583Z,8.70
2019-03-13T12:18:50.864Z,8.80
2019-03-13T12:21:30.946Z,8.80
2019-03-13T12:24:15.640Z,9.00
2019-03-13T12:26:49.415Z,9.20
2019-03-13T12:29:23.235Z,9.10
2019-03-13T12:31:54.058Z,9.00
2019-03-13T12:34:23.217Z,8.90
2019-03-13T12:37:00.070Z,9.00
2019-03-13T12:39:32.040Z,9.10
2019-03-13T12:42:00.113Z,9.20
2019-03-13T12:44:28.038Z,9.20
2019-03-13T12:47:10.571Z,9.10
2019-03-13T12:49:44.661Z,9.00
2019-03-13T12:52:33.001Z,9.00
2019-03-13T12:55:02.623Z,9.00
2019-03-13T12:57:42.322Z,9.00
2019-03-13T13:00:23.295Z,9.00
2019-03-13T13:03:01.500Z,9.10
2019-03-13T13:05:50.205Z,9.00
2019-03-13T13:08:30.217Z,9.00
2019-03-13T13:11:33.490Z,9.00
2019-03-13T13:14:02.798Z,8.90
2019-03-13T13:16:40.248Z,8.90
2019-03-13T13:19:11.066Z,8.90
2019-03-13T13:21:37.344Z,8.80
2019-03-13T13:24:04.237Z,8.70
2019-03-13T13:26:32.289Z,8.70
2019-03-13T13:29:04.522Z,8.70
2019-03-13T13:31:32.216Z,8.80
2019-03-13T13:33:58.642Z,8.80
2019-03-13T13:36:26.904Z,8.80
2019-03-13T13:38:55.302Z,8.80
2019-03-13T13:41:21.436Z,8.80
2019-03-13T13:43:50.264Z,8.90
2019-03-13T13:46:22.281Z,8.80
2019-03-13T13:48:48.617Z,8.80
2019-03-13T13:51:15.186Z,8.90
2019-03-13T13:53:43.543Z,8.90
2019-03-13T13:56:11.571Z,8.90
2019-03-13T13:58:38.003Z,8.80
2019-03-13T14:01:06.091Z,8.80
2019-03-13T14:03:32.235Z,8.90
2019-03-13T14:05:58.517Z,8.80
2019-03-13T14:08:24.638Z,8.80
2019-03-13T14:10:51.178Z,8.70
2019-03-13T14:13:18.396Z,8.70
2019-03-13T14:15:46.193Z,8.70
2019-03-13T14:18:12.523Z,8.60
2019-03-13T14:20:41.005Z,8.60
2019-03-13T14:23:07.326Z,8.60
2019-03-13T14:25:33.531Z,8.60
2019-03-13T14:28:00.989Z,8.60
2019-03-13T14:30:46.380Z,8.60
2019-03-13T14:33:13.781Z,8.60
2019-03-13T14:35:40.152Z,8.50
2019-03-13T14:38:06.428Z,8.50
2019-03-13T14:40:35.926Z,8.50
2019-03-13T14:43:02.327Z,8.40
2019-03-13T14:45:31.679Z,8.40
2019-03-13T14:47:57.937Z,8.40
2019-03-13T14:50:23.980Z,8.50
2019-03-13T14:52:51.566Z,8.40
2019-03-13T14:55:17.907Z,8.40
2019-03-13T14:57:44.446Z,8.40
2019-03-13T15:00:21.645Z,8.40
2019-03-13T15:02:48.220Z,8.50
2019-03-13T15:05:16.764Z,8.50
2019-03-13T15:07:43.079Z,8.50
2019-03-13T15:10:13.871Z,8.50
2019-03-13T15:12:42.907Z,8.40
2019-03-13T15:15:11.044Z,8.40
2019-03-13T15:17:37.214Z,8.40
2019-03-13T15:20:07.437Z,8.40
2019-03-13T15:22:34.372Z,8.40
2019-03-13T15:25:04.034Z,8.40
2019-03-13T15:27:37.659Z,8.40
2019-03-13T15:30:07.627Z,8.40
2019-03-13T15:32:33.968Z,8.40
2019-03-13T15:35:00.413Z,8.50
2019-03-13T15:37:26.661Z,8.50
2019-03-13T15:39:53.860Z,8.40
2019-03-13T15:42:21.209Z,8.40
2019-03-13T15:44:48.522Z,8.40
2019-03-13T15:47:14.957Z,8.40
2019-03-13T15:49:42.184Z,8.40
2019-03-13T15:52:08.482Z,8.40
2019-03-13T15:54:34.987Z,8.40
2019-03-13T15:57:02.325Z,8.40
2019-03-13T15:59:28.617Z,8.40
2019-03-13T16:01:54.725Z,8.40
2019-03-13T16:04:21.136Z,8.30
2019-03-13T16:06:48.120Z,8.30
2019-03-13T16:09:15.356Z,8.30
2019-03-13T16:11:43.346Z,8.20
2019-03-13T16:14:10.680Z,8.20
2019-03-13T16:16:38.917Z,8.10
2019-03-13T16:19:05.407Z,8.00
2019-03-13T16:21:33.796Z,8.10
2019-03-13T16:24:00.622Z,8.00
2019-03-13T16:26:26.879Z,8.10
2019-03-13T16:28:54.874Z,8.10
2019-03-13T16:31:24.759Z,8.00
2019-03-13T16:33:52.936Z,8.10
2019-03-13T16:36:19.295Z,8.10
2019-03-13T16:38:45.766Z,8.10
2019-03-13T16:41:11.949Z,8.10
2019-03-13T16:43:40.577Z,8.10
2019-03-13T16:46:06.967Z,8.10
2019-03-13T16:48:35.003Z,8.10
2019-03-13T16:51:01.138Z,8.10
2019-03-13T16:53:29.588Z,8.00
2019-03-13T16:55:55.598Z,7.90
2019-03-13T16:58:22.152Z,7.80
2019-03-13T17:00:50.621Z,7.80
2019-03-13T17:03:16.658Z,7.70
2019-03-13T17:05:45.955Z,7.70
2019-03-13T17:08:13.356Z,7.70
2019-03-13T17:10:40.051Z,7.70
2019-03-13T17:13:06.615Z,7.70
2019-03-13T17:15:32.875Z,7.70
2019-03-13T17:17:59.386Z,7.80
2019-03-13T17:20:28.375Z,7.80
2019-03-13T17:22:54.605Z,7.80
2019-03-13T17:25:30.879Z,7.80
2019-03-13T17:27:57.157Z,7.80
2019-03-13T17:30:32.520Z,7.70
2019-03-13T17:33:01.747Z,7.80
2019-03-13T17:35:30.963Z,7.80
2019-03-13T17:37:59.943Z,7.80
2019-03-13T17:40:29.233Z,7.80
2019-03-13T17:42:58.454Z,7.80
2019-03-13T17:48:13.731Z,7.90
2019-03-13T17:50:40.704Z,7.90
2019-03-13T17:53:08.124Z,7.90
2019-03-13T17:55:37.459Z,7.90
2019-03-13T17:58:03.978Z,7.90
2019-03-13T18:00:50.574Z,8.00
2019-03-13T18:03:16.850Z,8.00
2019-03-13T18:05:43.253Z,8.00
2019-03-13T18:08:09.824Z,7.90
2019-03-13T18:10:37.922Z,7.90
2019-03-13T18:13:04.208Z,7.90
2019-03-13T18:15:38.823Z,7.90
2019-03-13T18:18:04.944Z,7.80
2019-03-13T18:20:34.577Z,7.70
2019-03-13T18:23:01.382Z,7.70
2019-03-13T18:25:29.950Z,7.70
2019-03-13T18:27:59.514Z,7.60
2019-03-13T18:30:27.408Z,7.60
2019-03-13T18:32:54.135Z,7.50
2019-03-13T18:35:21.651Z,7.50
2019-03-13T18:38:02.156Z,7.40
2019-03-13T18:40:28.295Z,7.40
2019-03-13T18:42:54.470Z,7.30
2019-03-13T18:45:25.181Z,7.20
2019-03-13T18:47:54.872Z,7.20
2019-03-13T18:50:25.382Z,7.10
2019-03-13T18:52:56.637Z,7.10
2019-03-13T18:55:35.342Z,7.00
2019-03-13T18:58:01.659Z,6.90
2019-03-13T19:00:31.652Z,6.80
2019-03-13T19:02:58.110Z,6.70
2019-03-13T19:05:27.817Z,6.70
2019-03-13T19:07:55.320Z,6.70
2019-03-13T19:10:26.051Z,6.70
2019-03-13T19:12:54.688Z,6.70
2019-03-13T19:15:22.452Z,6.60
2019-03-13T19:17:48.768Z,6.60
2019-03-13T19:20:19.285Z,6.60
2019-03-13T19:22:46.921Z,6.50
2019-03-13T19:25:17.527Z,6.50
2019-03-13T19:27:46.026Z,6.50
2019-03-13T19:30:30.543Z,6.40
2019-03-13T19:32:57.777Z,6.40
2019-03-13T19:35:24.631Z,6.40
2019-03-13T19:37:51.420Z,6.40
2019-03-13T19:40:19.644Z,6.40
2019-03-13T19:42:45.818Z,6.40
2019-03-13T19:45:14.523Z,6.40
2019-03-13T19:47:45.591Z,6.40
2019-03-13T19:50:14.032Z,6.40
2019-03-13T19:52:43.601Z,6.40
2019-03-13T19:55:12.916Z,6.40
2019-03-13T19:57:43.493Z,6.30
2019-03-13T20:00:16.242Z,6.20
2019-03-13T20:02:43.555Z,6.30
2019-03-13T20:05:13.849Z,6.20
2019-03-13T20:07:44.449Z,6.20
2019-03-13T20:10:19.536Z,6.10
2019-03-13T20:12:46.376Z,6.10
2019-03-13T20:15:18.945Z,6.00
2019-03-13T20:17:48.486Z,6.00
2019-03-13T20:20:20.356Z,6.00
2019-03-13T20:22:48.796Z,6.00
2019-03-13T20:25:17.888Z,6.00
2019-03-13T20:27:44.831Z,6.00
2019-03-13T20:30:17.342Z,6.10
2019-03-13T20:32:45.622Z,6.00
2019-03-13T20:35:14.697Z,6.10
2019-03-13T20:37:43.916Z,6.10
2019-03-13T20:40:15.232Z,6.10
2019-03-13T20:42:46.544Z,6.10
2019-03-13T20:45:15.365Z,6.10
2019-03-13T20:47:45.567Z,6.10
2019-03-13T20:50:14.126Z,6.10
2019-03-13T20:52:40.379Z,6.00
2019-03-13T20:55:12.047Z,6.00
2019-03-13T20:57:42.028Z,6.10
2019-03-13T21:00:21.752Z,6.10
2019-03-13T21:02:47.926Z,6.00
2019-03-13T21:05:16.003Z,6.00
2019-03-13T21:07:42.641Z,6.00
2019-03-13T21:10:13.535Z,5.90
2019-03-13T21:12:43.833Z,5.90
2019-03-13T21:15:26.405Z,5.80
2019-03-13T21:18:03.813Z,5.70
2019-03-13T21:20:24.325Z,5.70
2019-03-13T21:22:51.307Z,5.70
2019-03-13T21:25:24.963Z,5.70
2019-03-13T21:27:51.509Z,5.70
2019-03-13T21:30:27.692Z,5.70
2019-03-13T21:32:55.353Z,5.70
2019-03-13T21:35:23.024Z,5.70
2019-03-13T21:37:50.553Z,5.70
2019-03-13T21:40:18.498Z,5.70
2019-03-13T21:42:46.063Z,5.70
2019-03-13T21:45:22.152Z,5.70
2019-03-13T21:47:48.155Z,5.70
2019-03-13T21:50:20.397Z,5.70
2019-03-13T21:52:46.727Z,5.70
2019-03-13T21:55:14.535Z,5.70
2019-03-13T21:57:42.761Z,5.80
2019-03-13T22:00:21.239Z,5.80
2019-03-13T22:02:50.221Z,5.80
2019-03-13T22:05:25.708Z,5.80
2019-03-13T22:07:49.390Z,5.80
2019-03-13T22:10:17.614Z,5.70
2019-03-13T22:12:49.161Z,5.80
2019-03-13T22:15:22.507Z,5.70
2019-03-13T22:17:52.163Z,5.70
2019-03-13T22:20:25.150Z,5.70
2019-03-13T22:22:51.858Z,5.60
2019-03-13T22:25:21.261Z,5.60
2019-03-13T22:27:47.831Z,5.50
2019-03-13T22:30:19.854Z,5.50
2019-03-13T22:32:49.779Z,5.50
2019-03-13T22:35:23.711Z,5.50
2019-03-13T22:37:53.177Z,5.50
2019-03-13T22:40:23.541Z,5.50
2019-03-13T22:42:52.106Z,5.50
2019-03-13T22:45:28.546Z,5.50
2019-03-13T22:47:57.363Z,5.50
2019-03-13T22:50:24.204Z,5.50
2019-03-13T22:52:52.207Z,5.50
2019-03-13T22:55:19.208Z,5.50
2019-03-13T22:57:47.582Z,5.50
2019-03-13T23:00:55.351Z,5.40
2019-03-13T23:03:25.993Z,5.40
2019-03-13T23:05:54.638Z,5.40
2019-03-13T23:08:24.652Z,5.40
2019-03-13T23:10:53.952Z,5.30
2019-03-13T23:13:23.306Z,5.30
2019-03-13T23:15:51.865Z,5.30
2019-03-13T23:18:24.600Z,5.30
2019-03-13T23:20:54.822Z,5.30
2019-03-13T23:23:25.242Z,5.40
2019-03-13T23:26:00.409Z,5.40
2019-03-13T23:28:26.648Z,5.40
2019-03-13T23:30:57.121Z,5.50
2019-03-13T23:33:24.576Z,5.50
2019-03-13T23:35:52.356Z,5.50
2019-03-13T23:38:23.680Z,5.60
2019-03-13T23:40:53.940Z,5.50
2019-03-13T23:43:19.967Z,5.60
2019-03-13T23:45:46.079Z,5.50
2019-03-13T23:48:12.096Z,5.50
2019-03-13T23:50:38.625Z,5.50
2019-03-13T23:53:04.857Z,5.50
2019-03-13T23:55:31.685Z,5.50
2019-03-13T23:57:59.363Z,5.40
